createdAt,value
2022-07-30T00:00:06.461Z,1010.23
2022-07-30T00:00:41.641Z,1010.24
2022-07-30T00:01:16.904Z,1010.22
2022-07-30T00:01:52.018Z,1010.22
2022-07-30T00:02:27.319Z,1010.19
2022-07-30T00:03:02.506Z,1010.21
2022-07-30T00:03:37.857Z,1010.20
2022-07-30T00:04:13.202Z,1010.23
2022-07-30T00:04:48.190Z,1010.23
2022-07-30T00:05:23.390Z,1010.21
2022-07-30T00:05:58.588Z,1010.18
2022-07-30T00:06:33.786Z,1010.16
2022-07-30T00:07:09.118Z,1010.18
2022-07-30T00:07:44.126Z,1010.14
2022-07-30T00:08:19.630Z,1010.18
2022-07-30T00:08:55.011Z,1010.15
2022-07-30T00:09:30.132Z,1010.17
2022-07-30T00:10:05.413Z,1010.20
2022-07-30T00:10:40.895Z,1010.19
2022-07-30T00:11:16.089Z,1010.19
2022-07-30T00:11:51.272Z,1010.22
2022-07-30T00:12:26.568Z,1010.22
2022-07-30T00:13:01.845Z,1010.24
2022-07-30T00:13:37.051Z,1010.23
2022-07-30T00:14:12.039Z,1010.21
2022-07-30T00:14:47.143Z,1010.20
2022-07-30T00:15:22.467Z,1010.21
2022-07-30T00:15:57.556Z,1010.18
2022-07-30T00:16:32.681Z,1010.26
2022-07-30T00:17:07.792Z,1010.22
2022-07-30T00:17:42.936Z,1010.23
2022-07-30T00:18:18.205Z,1010.22
2022-07-30T00:18:53.402Z,1010.22
2022-07-30T00:19:28.732Z,1010.23
2022-07-30T00:20:04.213Z,1010.18
2022-07-30T00:20:39.305Z,1010.22
2022-07-30T00:21:30.327Z,1010.23
2022-07-30T00:21:49.480Z,1010.23
2022-07-30T00:22:24.763Z,1010.24
2022-07-30T00:22:59.847Z,1010.22
2022-07-30T00:23:35.037Z,1010.26
2022-07-30T00:24:10.324Z,1010.24
2022-07-30T00:24:45.713Z,1010.23
2022-07-30T00:25:20.699Z,1010.23
2022-07-30T00:25:55.910Z,1010.23
2022-07-30T00:26:31.440Z,1010.27
2022-07-30T00:27:06.642Z,1010.22
2022-07-30T00:27:41.746Z,1010.26
2022-07-30T00:28:17.121Z,1010.24
2022-07-30T00:28:52.420Z,1010.24
2022-07-30T00:29:27.717Z,1010.22
2022-07-30T00:30:02.928Z,1010.22
2022-07-30T00:30:38.462Z,1010.22
2022-07-30T00:31:13.969Z,1010.22
2022-07-30T00:31:49.205Z,1010.19
2022-07-30T00:32:24.394Z,1010.18
2022-07-30T00:32:59.499Z,1010.17
2022-07-30T00:33:34.695Z,1010.17
2022-07-30T00:34:09.893Z,1010.18
2022-07-30T00:34:44.992Z,1010.16
2022-07-30T00:35:19.849Z,1010.15
2022-07-30T00:35:55.433Z,1010.15
2022-07-30T00:36:30.726Z,1010.12
2022-07-30T00:37:05.795Z,1010.14
2022-07-30T00:37:41.295Z,1010.13
2022-07-30T00:38:16.379Z,1010.13
2022-07-30T00:38:51.568Z,1010.13
2022-07-30T00:39:26.590Z,1010.12
2022-07-30T00:40:01.980Z,1010.12
2022-07-30T00:40:37.157Z,1010.11
2022-07-30T00:41:12.449Z,1010.14
2022-07-30T00:41:47.656Z,1010.11
2022-07-30T00:42:22.533Z,1010.09
2022-07-30T00:42:58.124Z,1010.06
2022-07-30T00:43:33.227Z,1010.05
2022-07-30T00:44:08.521Z,1010.07
2022-07-30T00:44:44.215Z,1010.01
2022-07-30T00:45:19.305Z,1010.05
2022-07-30T00:45:54.611Z,1010.03
2022-07-30T00:46:29.717Z,1010.05
2022-07-30T00:47:05.181Z,1010.04
2022-07-30T00:47:40.510Z,1010.03
2022-07-30T00:48:15.694Z,1010.05
2022-07-30T00:48:50.849Z,1010.04
2022-07-30T00:49:26.148Z,1010.03
2022-07-30T00:50:01.249Z,1010.06
2022-07-30T00:50:36.188Z,1010.01
2022-07-30T00:51:11.469Z,1010.04
2022-07-30T00:51:46.669Z,1010.06
2022-07-30T00:52:21.974Z,1010.05
2022-07-30T00:52:57.058Z,1010.06
2022-07-30T00:53:32.570Z,1010.05
2022-07-30T00:54:07.674Z,1010.01
2022-07-30T00:54:42.676Z,1010.06
2022-07-30T00:55:17.962Z,1010.06
2022-07-30T00:55:52.943Z,1010.07
2022-07-30T00:56:28.567Z,1010.04
2022-07-30T00:57:04.035Z,1010.05
2022-07-30T00:57:39.209Z,1010.01
2022-07-30T00:58:14.216Z,1010.04
2022-07-30T00:58:49.010Z,1010.03
2022-07-30T00:59:24.133Z,1010.02
2022-07-30T00:59:59.509Z,1010.03
2022-07-30T01:00:34.619Z,1010.04
2022-07-30T01:01:09.652Z,1010.00
2022-07-30T01:01:44.855Z,1010.06
2022-07-30T01:02:20.131Z,1010.01
2022-07-30T01:02:55.388Z,1010.02
2022-07-30T01:03:30.690Z,1010.02
2022-07-30T01:04:06.002Z,1010.00
2022-07-30T01:04:41.098Z,1010.04
2022-07-30T01:05:16.689Z,1010.05
2022-07-30T01:05:51.784Z,1010.05
2022-07-30T01:06:27.063Z,1010.05
2022-07-30T01:07:02.622Z,1010.06
2022-07-30T01:07:37.556Z,1010.03
2022-07-30T01:08:12.741Z,1010.08
2022-07-30T01:08:48.248Z,1010.10
2022-07-30T01:09:23.968Z,1010.14
2022-07-30T01:09:59.349Z,1010.10
2022-07-30T01:10:34.540Z,1010.11
2022-07-30T01:11:10.029Z,1010.10
2022-07-30T01:11:45.031Z,1010.14
2022-07-30T01:12:20.307Z,1010.09
2022-07-30T01:12:55.595Z,1010.11
2022-07-30T01:13:30.906Z,1010.12
2022-07-30T01:14:06.110Z,1010.09
2022-07-30T01:14:41.649Z,1010.09
2022-07-30T01:15:16.849Z,1010.05
2022-07-30T01:15:52.014Z,1010.10
2022-07-30T01:16:27.265Z,1010.05
2022-07-30T01:17:02.943Z,1010.05
2022-07-30T01:17:37.796Z,1010.03
2022-07-30T01:18:12.994Z,1010.03
2022-07-30T01:18:48.099Z,1010.03
2022-07-30T01:19:23.229Z,1009.99
2022-07-30T01:19:58.726Z,1010.00
2022-07-30T01:20:33.636Z,1009.98
2022-07-30T01:21:09.026Z,1009.96
2022-07-30T01:21:44.545Z,1010.00
2022-07-30T01:22:19.835Z,1009.97
2022-07-30T01:22:55.040Z,1009.96
2022-07-30T01:23:30.458Z,1009.95
2022-07-30T01:24:05.650Z,1009.95
2022-07-30T01:24:40.961Z,1009.91
2022-07-30T01:25:16.167Z,1009.87
2022-07-30T01:25:51.403Z,1009.89
2022-07-30T01:26:26.804Z,1009.86
2022-07-30T01:27:02.119Z,1009.87
2022-07-30T01:27:37.026Z,1009.86
2022-07-30T01:28:11.924Z,1009.83
2022-07-30T01:28:46.927Z,1009.85
2022-07-30T01:29:22.046Z,1009.84
2022-07-30T01:29:57.436Z,1009.83
2022-07-30T01:30:32.527Z,1009.82
2022-07-30T01:31:08.048Z,1009.82
2022-07-30T01:31:43.507Z,1009.80
2022-07-30T01:32:18.468Z,1009.78
2022-07-30T01:32:53.670Z,1009.79
2022-07-30T01:33:28.952Z,1009.81
2022-07-30T01:34:04.466Z,1009.80
2022-07-30T01:34:39.675Z,1009.79
2022-07-30T01:35:15.002Z,1009.82
2022-07-30T01:35:50.485Z,1009.88
2022-07-30T01:36:25.689Z,1009.84
2022-07-30T01:37:01.194Z,1009.86
2022-07-30T01:37:36.114Z,1009.86
2022-07-30T01:38:11.710Z,1009.85
2022-07-30T01:38:46.908Z,1009.86
2022-07-30T01:39:22.229Z,1009.88
2022-07-30T01:39:57.330Z,1009.87
2022-07-30T01:40:32.541Z,1009.90
2022-07-30T01:41:08.063Z,1009.84
2022-07-30T01:41:43.266Z,1009.86
2022-07-30T01:42:18.581Z,1009.86
2022-07-30T01:42:53.756Z,1009.84
2022-07-30T01:43:28.954Z,1009.87
2022-07-30T01:44:03.861Z,1009.89
2022-07-30T01:44:38.959Z,1009.85
2022-07-30T01:45:14.255Z,1009.85
2022-07-30T01:45:49.372Z,1009.86
2022-07-30T01:46:24.638Z,1009.85
2022-07-30T01:47:00.096Z,1009.85
2022-07-30T01:47:35.239Z,1009.87
2022-07-30T01:48:10.417Z,1009.87
2022-07-30T01:48:45.852Z,1009.88
2022-07-30T01:49:21.347Z,1009.88
2022-07-30T01:49:56.931Z,1009.88
2022-07-30T01:50:31.929Z,1009.89
2022-07-30T01:51:06.903Z,1009.88
2022-07-30T01:51:42.013Z,1009.87
2022-07-30T01:52:17.031Z,1009.87
2022-07-30T01:52:52.339Z,1009.86
2022-07-30T01:53:27.551Z,1009.86
2022-07-30T01:54:02.851Z,1009.85
2022-07-30T01:54:38.267Z,1009.87
2022-07-30T01:55:17.166Z,1009.86
2022-07-30T01:55:48.790Z,1009.87
2022-07-30T01:56:24.920Z,1009.86
2022-07-30T01:56:59.584Z,1009.85
2022-07-30T01:57:34.549Z,1009.84
2022-07-30T01:58:09.805Z,1009.84
2022-07-30T01:58:45.111Z,1009.83
2022-07-30T01:59:20.161Z,1009.82
2022-07-30T01:59:55.266Z,1009.82
2022-07-30T02:00:30.287Z,1009.81
2022-07-30T02:01:05.293Z,1009.81
2022-07-30T02:01:40.569Z,1009.80
2022-07-30T02:02:18.145Z,1009.83
2022-07-30T02:02:50.885Z,1009.81
2022-07-30T02:03:26.060Z,1009.85
2022-07-30T02:04:01.335Z,1009.85
2022-07-30T02:04:36.456Z,1009.81
2022-07-30T02:05:11.657Z,1009.85
2022-07-30T02:05:46.763Z,1009.87
2022-07-30T02:06:22.047Z,1009.86
2022-07-30T02:06:57.290Z,1009.89
2022-07-30T02:07:32.598Z,1009.87
2022-07-30T02:08:07.678Z,1009.89
2022-07-30T02:08:43.085Z,1009.87
2022-07-30T02:09:18.208Z,1009.90
2022-07-30T02:09:53.397Z,1009.89
2022-07-30T02:10:28.314Z,1009.89
2022-07-30T02:11:03.725Z,1009.90
2022-07-30T02:11:39.306Z,1009.89
2022-07-30T02:12:14.307Z,1009.90
2022-07-30T02:12:49.399Z,1009.87
2022-07-30T02:13:24.505Z,1009.86
2022-07-30T02:13:59.722Z,1009.86
2022-07-30T02:14:34.760Z,1009.88
2022-07-30T02:15:09.860Z,1009.85
2022-07-30T02:15:45.076Z,1009.89
2022-07-30T02:16:20.291Z,1009.83
2022-07-30T02:16:55.537Z,1009.84
2022-07-30T02:17:39.452Z,1009.81
2022-07-30T02:18:05.746Z,1009.84
2022-07-30T02:18:40.860Z,1009.81
2022-07-30T02:19:16.247Z,1009.81
2022-07-30T02:19:51.451Z,1009.79
2022-07-30T02:20:28.343Z,1009.81
2022-07-30T02:21:02.614Z,1009.82
2022-07-30T02:21:37.268Z,1009.84
2022-07-30T02:22:12.172Z,1009.81
2022-07-30T02:22:47.483Z,1009.83
2022-07-30T02:23:22.665Z,1009.83
2022-07-30T02:23:58.071Z,1009.82
2022-07-30T02:24:33.089Z,1009.86
2022-07-30T02:25:08.196Z,1009.82
2022-07-30T02:25:43.782Z,1009.84
2022-07-30T02:26:18.872Z,1009.84
2022-07-30T02:26:53.980Z,1009.87
2022-07-30T02:27:29.458Z,1009.87
2022-07-30T02:28:04.554Z,1009.87
2022-07-30T02:28:39.783Z,1009.89
2022-07-30T02:29:15.214Z,1009.92
2022-07-30T02:29:50.426Z,1009.92
2022-07-30T02:30:25.746Z,1009.92
2022-07-30T02:31:01.446Z,1009.90
2022-07-30T02:31:36.779Z,1009.93
2022-07-30T02:32:11.951Z,1009.89
2022-07-30T02:32:47.168Z,1009.94
2022-07-30T02:33:22.470Z,1009.94
2022-07-30T02:33:57.581Z,1009.97
2022-07-30T02:34:32.798Z,1009.97
2022-07-30T02:35:07.906Z,1009.97
2022-07-30T02:35:43.116Z,1009.94
2022-07-30T02:36:18.396Z,1009.92
2022-07-30T02:36:53.703Z,1009.97
2022-07-30T02:37:43.227Z,1009.97
2022-07-30T02:38:04.122Z,1009.95
2022-07-30T02:38:39.420Z,1009.95
2022-07-30T02:39:14.927Z,1009.95
2022-07-30T02:39:50.322Z,1010.01
2022-07-30T02:40:25.524Z,1009.98
2022-07-30T02:41:00.546Z,1010.00
2022-07-30T02:41:35.767Z,1009.96
2022-07-30T02:42:11.059Z,1009.97
2022-07-30T02:42:46.278Z,1010.02
2022-07-30T02:43:21.680Z,1009.99
2022-07-30T02:43:56.793Z,1010.01
2022-07-30T02:44:32.024Z,1010.03
2022-07-30T02:45:07.128Z,1010.03
2022-07-30T02:45:42.432Z,1010.05
2022-07-30T02:46:17.658Z,1010.08
2022-07-30T02:46:52.909Z,1010.04
2022-07-30T02:47:28.087Z,1010.01
2022-07-30T02:48:03.391Z,1010.01
2022-07-30T02:48:38.438Z,1010.00
2022-07-30T02:49:13.532Z,1010.02
2022-07-30T02:49:48.698Z,1010.02
2022-07-30T02:50:23.787Z,1009.99
2022-07-30T02:50:59.305Z,1010.00
2022-07-30T02:51:34.624Z,1010.02
2022-07-30T02:52:09.761Z,1009.98
2022-07-30T02:52:44.922Z,1009.97
2022-07-30T02:55:25.493Z,1009.96
2022-07-30T02:56:00.662Z,1009.93
2022-07-30T02:56:35.833Z,1009.94
2022-07-30T02:57:11.338Z,1009.94
2022-07-30T02:57:46.748Z,1009.95
2022-07-30T02:58:22.239Z,1009.89
2022-07-30T02:58:57.468Z,1009.92
2022-07-30T02:59:32.784Z,1009.92
2022-07-30T03:00:07.986Z,1009.86
2022-07-30T03:00:43.310Z,1009.90
2022-07-30T03:01:18.413Z,1009.91
2022-07-30T03:01:53.677Z,1009.88
2022-07-30T03:02:29.430Z,1009.87
2022-07-30T03:03:03.632Z,1009.84
2022-07-30T03:03:38.832Z,1009.84
2022-07-30T03:04:14.140Z,1009.86
2022-07-30T03:04:49.667Z,1009.90
2022-07-30T03:05:24.524Z,1009.86
2022-07-30T03:05:59.904Z,1009.90
2022-07-30T03:06:34.794Z,1009.89
2022-07-30T03:07:10.064Z,1009.90
2022-07-30T03:07:44.974Z,1009.91
2022-07-30T03:08:20.081Z,1009.92
2022-07-30T03:08:54.965Z,1009.93
2022-07-30T03:09:51.248Z,1009.92
2022-07-30T03:10:05.545Z,1009.94
2022-07-30T03:10:40.559Z,1009.93
2022-07-30T03:11:15.720Z,1009.94
2022-07-30T03:11:51.001Z,1009.93
2022-07-30T03:12:26.113Z,1009.97
2022-07-30T03:13:01.201Z,1009.96
2022-07-30T03:13:36.305Z,1009.96
2022-07-30T03:14:11.618Z,1009.97
2022-07-30T03:14:46.933Z,1010.00
2022-07-30T03:15:22.326Z,1010.00
2022-07-30T03:15:57.691Z,1010.02
2022-07-30T03:16:32.806Z,1010.01
2022-07-30T03:17:08.010Z,1010.02
2022-07-30T03:17:43.430Z,1010.04
2022-07-30T03:18:18.700Z,1010.05
2022-07-30T03:18:54.296Z,1010.04
2022-07-30T03:19:29.598Z,1010.03
2022-07-30T03:20:04.901Z,1010.06
2022-07-30T03:20:39.913Z,1010.02
2022-07-30T03:21:15.101Z,1010.03
2022-07-30T03:21:50.505Z,1010.03
2022-07-30T03:22:27.954Z,1010.06
2022-07-30T03:23:01.195Z,1010.03
2022-07-30T03:23:36.181Z,1010.04
2022-07-30T03:24:11.405Z,1010.08
2022-07-30T03:24:46.600Z,1010.06
2022-07-30T03:25:21.588Z,1010.05
2022-07-30T03:25:57.047Z,1010.08
2022-07-30T03:26:32.121Z,1010.06
2022-07-30T03:27:07.319Z,1010.08
2022-07-30T03:27:42.501Z,1010.07
2022-07-30T03:28:18.109Z,1010.05
2022-07-30T03:28:53.211Z,1010.07
2022-07-30T03:29:28.417Z,1010.05
2022-07-30T03:30:03.736Z,1010.08
2022-07-30T03:30:38.617Z,1010.05
2022-07-30T03:31:14.085Z,1010.05
2022-07-30T03:31:49.322Z,1010.04
2022-07-30T03:32:26.270Z,1010.07
2022-07-30T03:33:00.149Z,1010.09
2022-07-30T03:33:38.117Z,1010.08
2022-07-30T03:34:10.357Z,1010.10
2022-07-30T03:34:45.348Z,1010.08
2022-07-30T03:35:20.747Z,1010.10
2022-07-30T03:35:55.940Z,1010.09
2022-07-30T03:36:31.033Z,1010.07
2022-07-30T03:37:06.318Z,1010.07
2022-07-30T03:37:41.528Z,1010.06
2022-07-30T03:38:16.819Z,1010.05
2022-07-30T03:38:52.198Z,1010.08
2022-07-30T03:39:27.615Z,1010.07
2022-07-30T03:40:02.603Z,1010.06
2022-07-30T03:40:37.705Z,1010.05
2022-07-30T03:41:12.799Z,1010.03
2022-07-30T03:41:48.188Z,1010.05
2022-07-30T03:42:23.498Z,1010.05
2022-07-30T03:42:58.582Z,1010.03
2022-07-30T03:43:34.204Z,1010.03
2022-07-30T03:44:09.291Z,1010.05
2022-07-30T03:44:44.696Z,1010.00
2022-07-30T03:45:19.850Z,1010.01
2022-07-30T03:45:55.554Z,1010.03
2022-07-30T03:46:30.698Z,1010.01
2022-07-30T03:47:06.164Z,1010.02
2022-07-30T03:47:41.231Z,1010.04
2022-07-30T03:48:16.325Z,1010.05
2022-07-30T03:48:51.638Z,1010.05
2022-07-30T03:49:26.989Z,1010.03
2022-07-30T03:50:02.133Z,1010.03
2022-07-30T03:50:37.838Z,1010.02
2022-07-30T03:51:13.036Z,1010.02
2022-07-30T03:51:48.220Z,1009.99
2022-07-30T03:52:23.603Z,1010.00
2022-07-30T03:52:58.738Z,1010.02
2022-07-30T03:53:34.008Z,1010.00
2022-07-30T03:54:13.138Z,1010.01
2022-07-30T03:54:44.618Z,1010.00
2022-07-30T03:55:19.613Z,1009.99
2022-07-30T03:55:55.030Z,1010.00
2022-07-30T03:56:29.906Z,1009.94
2022-07-30T03:57:04.927Z,1009.98
2022-07-30T03:57:40.010Z,1009.96
2022-07-30T03:58:15.302Z,1009.94
2022-07-30T03:58:50.492Z,1009.96
2022-07-30T03:59:25.716Z,1009.97
2022-07-30T04:00:00.917Z,1009.96
2022-07-30T04:00:36.121Z,1009.98
2022-07-30T04:01:11.597Z,1010.00
2022-07-30T04:01:47.021Z,1009.99
2022-07-30T04:02:22.011Z,1009.98
2022-07-30T04:02:57.126Z,1010.02
2022-07-30T04:03:32.270Z,1010.05
2022-07-30T04:04:07.500Z,1010.06
2022-07-30T04:04:42.820Z,1010.05
2022-07-30T04:05:18.025Z,1010.05
2022-07-30T04:05:53.008Z,1010.07
2022-07-30T04:06:28.370Z,1010.07
2022-07-30T04:07:03.753Z,1010.11
2022-07-30T04:07:41.402Z,1010.11
2022-07-30T04:08:13.973Z,1010.12
2022-07-30T04:08:49.260Z,1010.13
2022-07-30T04:09:24.485Z,1010.12
2022-07-30T04:09:59.477Z,1010.12
2022-07-30T04:10:34.456Z,1010.15
2022-07-30T04:11:09.748Z,1010.12
2022-07-30T04:11:44.748Z,1010.13
2022-07-30T04:12:20.157Z,1010.12
2022-07-30T04:12:55.263Z,1010.15
2022-07-30T04:13:30.551Z,1010.17
2022-07-30T04:14:05.671Z,1010.17
2022-07-30T04:14:40.953Z,1010.20
2022-07-30T04:16:37.947Z,1010.22
2022-07-30T04:16:38.115Z,1010.21
2022-07-30T04:16:39.313Z,1010.22
2022-07-30T04:17:02.147Z,1010.20
2022-07-30T04:17:37.070Z,1010.22
2022-07-30T04:18:12.207Z,1010.20
2022-07-30T04:18:47.705Z,1010.22
2022-07-30T04:19:22.624Z,1010.23
2022-07-30T04:19:58.028Z,1010.21
2022-07-30T04:20:33.309Z,1010.21
2022-07-30T04:21:16.062Z,1010.20
2022-07-30T04:21:44.232Z,1010.18
2022-07-30T04:22:19.427Z,1010.23
2022-07-30T04:22:54.620Z,1010.23
2022-07-30T04:23:29.704Z,1010.23
2022-07-30T04:24:05.592Z,1010.23
2022-07-30T04:24:40.021Z,1010.22
2022-07-30T04:25:24.231Z,1010.26
2022-07-30T04:25:50.528Z,1010.26
2022-07-30T04:26:26.028Z,1010.28
2022-07-30T04:27:01.322Z,1010.27
2022-07-30T04:27:36.116Z,1010.30
2022-07-30T04:28:11.422Z,1010.30
2022-07-30T04:28:46.498Z,1010.32
2022-07-30T04:29:24.456Z,1010.31
2022-07-30T04:29:56.999Z,1010.36
2022-07-30T04:30:32.295Z,1010.37
2022-07-30T04:31:07.689Z,1010.40
2022-07-30T04:31:42.919Z,1010.35
2022-07-30T04:32:18.073Z,1010.36
2022-07-30T04:32:53.357Z,1010.40
2022-07-30T04:33:28.566Z,1010.37
2022-07-30T04:34:04.783Z,1010.39
2022-07-30T04:34:39.156Z,1010.39
2022-07-30T04:35:49.688Z,1010.40
2022-07-30T04:35:51.057Z,1010.43
2022-07-30T04:36:25.156Z,1010.43
2022-07-30T04:37:00.655Z,1010.41
2022-07-30T04:37:35.528Z,1010.38
2022-07-30T04:38:10.843Z,1010.40
2022-07-30T04:38:46.022Z,1010.42
2022-07-30T04:39:21.438Z,1010.43
2022-07-30T04:39:56.528Z,1010.36
2022-07-30T04:40:31.730Z,1010.41
2022-07-30T04:41:06.912Z,1010.40
2022-07-30T04:41:48.997Z,1010.41
2022-07-30T04:42:17.600Z,1010.42
2022-07-30T04:42:52.979Z,1010.40
2022-07-30T04:43:28.196Z,1010.37
2022-07-30T04:44:03.405Z,1010.42
2022-07-30T04:44:38.478Z,1010.40
2022-07-30T04:45:13.950Z,1010.46
2022-07-30T04:45:48.749Z,1010.45
2022-07-30T04:46:24.857Z,1010.50
2022-07-30T04:46:59.481Z,1010.50
2022-07-30T04:47:34.519Z,1010.52
2022-07-30T04:48:09.790Z,1010.54
2022-07-30T04:48:48.126Z,1010.52
2022-07-30T04:49:19.764Z,1010.53
2022-07-30T04:49:54.893Z,1010.53
2022-07-30T04:50:30.205Z,1010.51
2022-07-30T04:51:05.783Z,1010.51
2022-07-30T04:51:40.785Z,1010.52
2022-07-30T04:52:15.767Z,1010.50
2022-07-30T04:52:50.891Z,1010.51
2022-07-30T04:53:26.374Z,1010.52
2022-07-30T04:54:01.563Z,1010.50
2022-07-30T04:54:36.828Z,1010.50
2022-07-30T04:55:12.019Z,1010.53
2022-07-30T04:55:47.212Z,1010.52
2022-07-30T04:56:22.379Z,1010.53
2022-07-30T04:56:57.403Z,1010.54
2022-07-30T04:57:32.802Z,1010.53
2022-07-30T04:58:07.899Z,1010.57
2022-07-30T04:58:43.285Z,1010.59
2022-07-30T04:59:18.296Z,1010.59
2022-07-30T04:59:53.489Z,1010.56
2022-07-30T05:00:31.005Z,1010.58
2022-07-30T05:01:03.983Z,1010.56
2022-07-30T05:01:40.195Z,1010.62
2022-07-30T05:02:14.631Z,1010.60
2022-07-30T05:02:49.965Z,1010.61
2022-07-30T05:03:25.066Z,1010.63
2022-07-30T05:04:00.260Z,1010.62
2022-07-30T05:04:35.469Z,1010.60
2022-07-30T05:05:10.657Z,1010.63
2022-07-30T05:05:45.671Z,1010.62
2022-07-30T05:06:20.876Z,1010.66
2022-07-30T05:06:56.175Z,1010.68
2022-07-30T05:07:31.673Z,1010.63
2022-07-30T05:08:06.862Z,1010.64
2022-07-30T05:08:42.086Z,1010.66
2022-07-30T05:09:17.282Z,1010.67
2022-07-30T05:09:52.508Z,1010.67
2022-07-30T05:10:27.697Z,1010.66
2022-07-30T05:11:03.084Z,1010.71
2022-07-30T05:11:38.080Z,1010.70
2022-07-30T05:12:13.270Z,1010.72
2022-07-30T05:12:48.471Z,1010.73
2022-07-30T05:13:27.593Z,1010.75
2022-07-30T05:13:58.773Z,1010.76
2022-07-30T05:14:34.224Z,1010.73
2022-07-30T05:15:09.515Z,1010.73
2022-07-30T05:15:45.163Z,1010.73
2022-07-30T05:16:20.552Z,1010.77
2022-07-30T05:16:56.112Z,1010.76
2022-07-30T05:17:31.501Z,1010.80
2022-07-30T05:18:06.717Z,1010.82
2022-07-30T05:18:42.037Z,1010.84
2022-07-30T05:19:17.326Z,1010.85
2022-07-30T05:19:52.743Z,1010.88
2022-07-30T05:20:28.232Z,1010.88
2022-07-30T05:21:03.423Z,1010.87
2022-07-30T05:21:38.828Z,1010.91
2022-07-30T05:22:14.053Z,1010.92
2022-07-30T05:22:50.655Z,1010.94
2022-07-30T05:23:24.635Z,1010.90
2022-07-30T05:23:59.726Z,1010.91
2022-07-30T05:24:35.073Z,1010.91
2022-07-30T05:25:16.261Z,1010.90
2022-07-30T05:25:45.389Z,1010.91
2022-07-30T05:26:20.861Z,1010.97
2022-07-30T05:26:56.162Z,1010.96
2022-07-30T05:27:31.473Z,1010.93
2022-07-30T05:28:06.789Z,1010.96
2022-07-30T05:28:42.078Z,1010.99
2022-07-30T05:29:19.830Z,1010.97
2022-07-30T05:29:52.786Z,1010.96
2022-07-30T05:30:28.008Z,1010.97
2022-07-30T05:31:03.318Z,1010.99
2022-07-30T05:31:38.559Z,1010.98
2022-07-30T05:32:13.592Z,1010.98
2022-07-30T05:32:48.914Z,1010.98
2022-07-30T05:33:24.291Z,1010.99
2022-07-30T05:34:03.039Z,1011.01
2022-07-30T05:34:34.787Z,1010.99
2022-07-30T05:35:09.890Z,1010.97
2022-07-30T05:35:45.181Z,1011.01
2022-07-30T05:36:20.383Z,1011.02
2022-07-30T05:36:55.881Z,1010.99
2022-07-30T05:37:31.191Z,1011.01
2022-07-30T05:38:06.177Z,1011.02
2022-07-30T05:38:41.405Z,1011.05
2022-07-30T05:39:16.820Z,1011.02
2022-07-30T05:40:02.356Z,1011.02
2022-07-30T05:40:27.632Z,1011.04
2022-07-30T05:41:03.074Z,1011.06
2022-07-30T05:41:38.481Z,1011.04
2022-07-30T05:42:13.700Z,1011.03
2022-07-30T05:42:48.892Z,1011.01
2022-07-30T05:43:24.006Z,1011.05
2022-07-30T05:43:59.096Z,1011.03
2022-07-30T05:44:34.513Z,1010.99
2022-07-30T05:45:09.912Z,1011.02
2022-07-30T05:45:44.953Z,1011.01
2022-07-30T05:46:20.716Z,1011.02
2022-07-30T05:46:55.983Z,1011.02
2022-07-30T05:47:30.964Z,1011.01
2022-07-30T05:48:06.092Z,1011.02
2022-07-30T05:48:41.323Z,1011.06
2022-07-30T05:49:16.438Z,1011.05
2022-07-30T05:49:51.686Z,1011.05
2022-07-30T05:50:26.927Z,1011.06
2022-07-30T05:51:02.115Z,1011.08
2022-07-30T05:51:37.528Z,1011.12
2022-07-30T05:52:13.029Z,1011.11
2022-07-30T05:52:48.667Z,1011.07
2022-07-30T05:53:23.664Z,1011.12
2022-07-30T05:53:59.186Z,1011.11
2022-07-30T05:54:34.467Z,1011.13
2022-07-30T05:55:09.611Z,1011.12
2022-07-30T05:55:44.808Z,1011.09
2022-07-30T05:56:20.031Z,1011.10
2022-07-30T05:56:55.220Z,1011.09
2022-07-30T05:57:30.358Z,1011.10
2022-07-30T05:58:05.254Z,1011.07
2022-07-30T05:58:40.579Z,1011.10
2022-07-30T05:59:15.876Z,1011.11
2022-07-30T05:59:51.184Z,1011.08
2022-07-30T06:00:26.489Z,1011.09
2022-07-30T06:01:01.716Z,1011.07
2022-07-30T06:01:37.467Z,1011.06
2022-07-30T06:02:12.640Z,1011.09
2022-07-30T06:02:48.232Z,1011.10
2022-07-30T06:03:23.649Z,1011.07
2022-07-30T06:03:58.834Z,1011.07
2022-07-30T06:04:34.093Z,1011.08
2022-07-30T06:05:09.249Z,1011.08
2022-07-30T06:05:44.486Z,1011.07
2022-07-30T06:06:22.866Z,1011.07
2022-07-30T06:06:55.225Z,1011.02
2022-07-30T06:07:30.831Z,1011.02
2022-07-30T06:08:06.442Z,1011.03
2022-07-30T06:08:41.659Z,1011.01
2022-07-30T06:09:16.975Z,1011.01
2022-07-30T06:09:52.186Z,1011.02
2022-07-30T06:10:27.195Z,1011.02
2022-07-30T06:11:02.406Z,1011.03
2022-07-30T06:11:37.626Z,1011.06
2022-07-30T06:12:12.935Z,1011.04
2022-07-30T06:12:48.163Z,1011.06
2022-07-30T06:13:23.485Z,1011.06
2022-07-30T06:13:58.807Z,1011.08
2022-07-30T06:14:33.996Z,1011.06
2022-07-30T06:15:09.236Z,1011.08
2022-07-30T06:15:44.460Z,1011.08
2022-07-30T06:16:19.858Z,1011.08
2022-07-30T06:16:54.761Z,1011.09
2022-07-30T06:17:30.168Z,1011.13
2022-07-30T06:18:05.569Z,1011.12
2022-07-30T06:18:40.854Z,1011.15
2022-07-30T06:19:19.527Z,1011.12
2022-07-30T06:19:51.377Z,1011.16
2022-07-30T06:20:26.525Z,1011.15
2022-07-30T06:21:01.730Z,1011.14
2022-07-30T06:22:06.395Z,1011.19
2022-07-30T06:22:12.168Z,1011.16
2022-07-30T06:22:47.280Z,1011.19
2022-07-30T06:23:22.419Z,1011.18
2022-07-30T06:23:57.511Z,1011.19
2022-07-30T06:24:32.521Z,1011.20
2022-07-30T06:25:07.632Z,1011.20
2022-07-30T06:25:42.951Z,1011.20
2022-07-30T06:26:18.185Z,1011.20
2022-07-30T06:26:53.681Z,1011.21
2022-07-30T06:27:31.417Z,1011.19
2022-07-30T06:28:27.429Z,1011.15
2022-07-30T06:28:39.817Z,1011.21
2022-07-30T06:29:14.815Z,1011.15
2022-07-30T06:29:50.118Z,1011.13
2022-07-30T06:30:31.102Z,1011.15
2022-07-30T06:31:00.859Z,1011.16
2022-07-30T06:31:36.291Z,1011.19
2022-07-30T06:32:11.309Z,1011.17
2022-07-30T06:32:48.692Z,1011.20
2022-07-30T06:33:21.404Z,1011.16
2022-07-30T06:33:56.825Z,1011.17
2022-07-30T06:34:32.034Z,1011.20
2022-07-30T06:35:06.931Z,1011.21
2022-07-30T06:35:42.033Z,1011.20
2022-07-30T06:36:17.227Z,1011.21
2022-07-30T06:36:52.740Z,1011.23
2022-07-30T06:38:06.160Z,1011.21
2022-07-30T06:38:07.064Z,1011.21
2022-07-30T06:38:38.509Z,1011.20
2022-07-30T06:39:13.623Z,1011.20
2022-07-30T06:39:56.711Z,1011.28
2022-07-30T06:40:24.353Z,1011.26
2022-07-30T06:41:02.487Z,1011.28
2022-07-30T06:41:34.979Z,1011.26
2022-07-30T06:42:10.282Z,1011.28
2022-07-30T06:42:45.894Z,1011.29
2022-07-30T06:43:20.900Z,1011.29
2022-07-30T06:43:56.229Z,1011.27
2022-07-30T06:44:31.625Z,1011.30
2022-07-30T06:45:06.846Z,1011.34
2022-07-30T06:45:42.166Z,1011.33
2022-07-30T06:46:17.576Z,1011.34
2022-07-30T06:46:53.075Z,1011.33
2022-07-30T06:47:28.371Z,1011.31
2022-07-30T06:48:03.295Z,1011.33
2022-07-30T06:48:38.314Z,1011.31
2022-07-30T06:49:14.025Z,1011.32
2022-07-30T06:49:49.242Z,1011.34
2022-07-30T06:50:24.670Z,1011.32
2022-07-30T06:51:00.082Z,1011.36
2022-07-30T06:51:35.374Z,1011.36
2022-07-30T06:52:12.684Z,1011.37
2022-07-30T06:52:46.417Z,1011.35
2022-07-30T06:53:21.628Z,1011.36
2022-07-30T06:53:56.957Z,1011.38
2022-07-30T06:54:32.285Z,1011.37
2022-07-30T06:55:07.509Z,1011.40
2022-07-30T06:55:42.717Z,1011.38
2022-07-30T06:56:17.955Z,1011.40
2022-07-30T06:56:53.547Z,1011.41
2022-07-30T06:57:28.871Z,1011.37
2022-07-30T06:58:04.793Z,1011.37
2022-07-30T06:58:40.297Z,1011.41
2022-07-30T06:59:15.826Z,1011.40
2022-07-30T06:59:56.916Z,1011.43
2022-07-30T07:00:26.073Z,1011.39
2022-07-30T07:01:01.498Z,1011.43
2022-07-30T07:01:36.753Z,1011.41
2022-07-30T07:02:11.923Z,1011.40
2022-07-30T07:02:47.223Z,1011.40
2022-07-30T07:03:22.528Z,1011.43
2022-07-30T07:03:57.568Z,1011.42
2022-07-30T07:04:32.738Z,1011.47
2022-07-30T07:05:07.900Z,1011.45
2022-07-30T07:05:43.104Z,1011.44
2022-07-30T07:06:18.424Z,1011.44
2022-07-30T07:06:53.335Z,1011.40
2022-07-30T07:07:41.194Z,1011.48
2022-07-30T07:08:03.859Z,1011.44